Nearby METAR Reports

 

KSJC - San Jose, California, USA
Distance from station: NE 14km
Updated: 03/07/2020 08:53
Few Clouds
Few Clouds
 Wind from SSE
Wind: SSE 11 km/h
Temperature: 17°C
Dew Point: 10°C
Humidity: 64%
Barometer: 1016.6 hPa
Clouds: Few Clouds
Visibility: 16 km
Cloud details: Few Clouds 396 m
2020/07/03 15:53 KSJC 031553Z 15006KT 10SM FEW013 17/10 A3002 RMK AO2 SLP165 T01670100
KNUQ - Moffett Nas/Mtn, California, USA
Distance from station: N 14km
Updated: 03/07/2020 06:55
NOT Current
Clear
Clear
 Wind from calm
Wind: Calm
Temperature: 14°C
Dew Point: 10°C
Humidity: 77%
Barometer: 1015.9 hPa
Clouds: Clear
Visibility: 16 km
2020/07/03 13:55 KNUQ 031355Z AUTO 00000KT 10SM CLR 14/10 A3000 RMK AO2
 
KPAO - Palo Alto, California, USA
Distance from station: NNW 23km
Updated: 03/07/2020 07:55
NOT Current
Few Clouds
Few Clouds
 Wind from varies
Wind: varies 9 km/h
Temperature: 15°C
Dew Point: 11°C
Humidity: 77%
Barometer: 1016.3 hPa
Clouds: Few Clouds
Visibility: 16 km
Cloud details: Few Clouds 610 m
2020/07/03 14:55 KPAO 031455Z VRB05KT 10SM FEW020 15/11 A3001
KRHV - San Jose/Reid, California, USA
Distance from station: ENE 19km
Updated: 03/07/2020 08:47
Clear
Clear
 Wind from varies
Wind: varies 9 km/h
Temperature: 16°C
Dew Point: 11°C
Humidity: 72%
Barometer: 1016.9 hPa
Clouds: Clear
Visibility: 16 km
2020/07/03 15:47 KRHV 031547Z VRB05KT 10SM SKC 16/11 A3003
 
KOAK - Oakland, California, USA
Distance from station: NNW 50km
Updated: 03/07/2020 08:53
Overcast
Overcast
 Wind from W
Wind: W 9 km/h
Temperature: 16°C
Dew Point: 12°C
Humidity: 77%
Barometer: 1016.9 hPa
Clouds: Overcast
Visibility: 16 km
Cloud details: Overcast 427 m
2020/07/03 15:53 KOAK 031553Z 28005KT 10SM OVC014 16/12 A3003 RMK AO2 SLP168 T01610117
KSQL - San Carlos Airpo, California, USA
Distance from station: NW 34km
Updated: 03/07/2020 08:47
Mostly cloudy
Mostly cloudy
 Wind from varies
Wind: varies 6 km/h
Temperature: 15°C
Dew Point: 12°C
Humidity: 82%
Barometer: 1017.3 hPa
Clouds: Mostly cloudy
Visibility: 16 km
Cloud details: Mostly cloudy 457 m
2020/07/03 15:47 KSQL 031547Z VRB03KT 10SM BKN015 15/12 A3004
 
KSFO - San Francisco, California, USA
Distance from station: NW 49km
Updated: 03/07/2020 08:56
Few Clouds
Few Clouds
 Wind from calm
Wind: Calm
Temperature: 16°C
Dew Point: 10°C
Humidity: 68%
Barometer: 1016.9 hPa
Clouds: Few Clouds
Visibility: 14 km
Cloud details: Few Clouds 152 m
Few Clouds 396 m
2020/07/03 15:56 KSFO 031556Z 00000KT 9SM FEW005 FEW013 16/10 A3003 RMK AO2 SLP167 T01610100
KE16 - San Martin, California, USA
Distance from station: ESE 43km
Updated: 09/06/2020 13:20
NOT Current
Clear
Clear
 Wind from NW
Wind: NW 17 km/h
Temperature: 30°C
Dew Point: 2°C
Humidity: 17%
Barometer: 1020.3 hPa
Clouds: Clear
Visibility: 16 km
2020/06/09 20:20 KE16 092020Z AUTO 31009KT 290V350 10SM CLR 30/02 A3013 RMK AO2 PWINO PNO
 
KWVI - Watsonville, California, USA
Distance from station: SSE 44km
Updated: 03/07/2020 08:53
Overcast
Overcast
 Wind from calm
Wind: Calm
Temperature: 15°C
Dew Point: 12°C
Humidity: 82%
Barometer: 1017.6 hPa
Clouds: Overcast
Visibility: 16 km
Cloud details: Overcast 366 m
2020/07/03 15:53 KWVI 031553Z AUTO 00000KT 10SM OVC012 15/12 A3005 RMK AO2 SLP177 T01500117
KHAF - Half Moon Bay, California, USA
Distance from station: WNW 50km
Updated: 03/07/2020 08:55
Mist, Few clouds
Mist, Few clouds
 Wind from SSW
Wind: SSW 13 km/h
Temperature: 13°C
Dew Point: 11°C
Humidity: 88%
Barometer: 1017.6 hPa
Summary: Mist
Clouds: Few Clouds
Visibility: 10 km
Cloud details: Few Clouds 213 m
2020/07/03 15:55 KHAF 031555Z AUTO 20007KT 6SM BR FEW007 13/11 A3005 RMK AO2
 
KHWD - Hayward, California, USA
Distance from station: N 44km
Updated: 03/07/2020 08:54
Mostly cloudy
Mostly cloudy
 Wind from W
Wind: W 11 km/h
Temperature: 17°C
Dew Point: 11°C
Humidity: 68%
Barometer: 1016.6 hPa
Clouds: Mostly cloudy
Visibility: 16 km
Cloud details: Mostly cloudy 488 m
2020/07/03 15:54 KHWD 031554Z 28006KT 10SM BKN016 17/11 A3002 RMK AO2 SLP175 T01670111
KLVK - Livermore, California, USA
Distance from station: NNE 51km
Updated: 03/07/2020 08:53
Clear
Clear
 Wind from WSW
Wind: WSW 7 km/h
Temperature: 17°C
Dew Point: 12°C
Humidity: 73%
Barometer: 1016.3 hPa
Clouds: Clear
Visibility: 16 km
2020/07/03 15:53 KLVK 031553Z 24004KT 10SM CLR 17/12 A3001 RMK AO2 SLP158 T01670117